Flight Track Log - Related Links

Times and Time Zones

All times are in EDT time to prevent confusion due to time zone crossing. See the EZY1974 flight status page for this flight to view local times or setup timezone preferences in your user account.

Time Position Orientation Groundspeed Altitude Reporting Facility
EDT Latitude Longitude Course Direction KTS MPH feet Rate Location/Type
Fri 02:55:43 PM 34.7897 32.0700 301° West 305 351 11,500  Level FlightAware ADS-B
Fri 02:56:23 PM 34.8181 32.0108 301° West 307 353 13,200 2,486 Climbing FlightAware ADS-B
Fri 02:56:53 PM 34.8397 31.9657 301° West 313 360 14,400 2,237 Climbing FlightAware ADS-B
Fri 02:57:22 PM 34.8603 31.9225 300° West 317 365 15,400 1,932 Climbing FlightAware ADS-B
Fri 02:57:52 PM 34.8834 31.8740 301° West 327 376 16,300 1,935 Climbing FlightAware ADS-B
Fri 02:58:24 PM 34.9074 31.8236 301° West 331 381 17,400 1,316 Climbing FlightAware ADS-B
Fri 03:11:28 PM 35.5788 30.3839 300° West 384 442 34,200 1,305 Climbing FlightAware ADS-B
Fri 03:11:58 PM 35.6055 30.3254 300° West 373 429 35,100 1,300 Climbing FlightAware ADS-B
Fri 03:12:28 PM 35.6271 30.2782 300° West 372 428 35,500 640 Climbing FlightAware ADS-B
Fri 03:13:13 PM 35.6671 30.1904 300° West 374 430 35,900 73 Climbing FlightAware ADS-B
Fri 03:19:18 PM 36.0382 29.5575 307° West 374 430 36,000 15 Climbing FlightAware ADS-B
Fri 03:19:49 PM 36.0692 29.5064 307° West 375 432 36,000  Level FlightAware ADS-B
Fri 03:20:10 PM 36.0922 29.4683 307° West 374 430 36,000  Level FlightAware ADS-B
Fri 03:20:25 PM 36.1058 29.4459 307° West 374 430 36,000  Level FlightAware ADS-B
Fri 03:21:53 PM 36.2035 29.2966 307° West 374 430 36,000  Level FlightAware ADS-B
Fri 03:22:22 PM 36.2410 29.2569 321° Northwest 381 438 36,000  Level FlightAware ADS-B
Fri 03:22:53 PM 36.2835 29.2125 320° Northwest 381 438 36,000  Level FlightAware ADS-B
Fri 03:23:10 PM 36.3053 29.1895 320° Northwest 381 438 36,000 17 Level FlightAware ADS-B
Fri 03:25:00 PM 36.4543 29.0221 318° Northwest  Level Estimated
Fri 03:26:00 PM 36.5355 28.9306 318° Northwest  Level Estimated
Fri 03:27:00 PM 36.6166 28.8388 318° Northwest  Level Estimated
Fri 03:28:00 PM 36.6976 28.7469 318° Northwest  Level Estimated
Fri 03:29:00 PM 36.7786 28.6548 318° Northwest  Level Estimated
Fri 03:30:00 PM 36.8595 28.5625 318° Northwest  Level Estimated
Fri 03:31:00 PM 36.9403 28.4699 318° Northwest  Level Estimated
Fri 03:32:00 PM 37.0210 28.3772 317° Northwest  Level Estimated
Fri 03:33:00 PM 37.1017 28.2843 317° Northwest  Level Estimated
Fri 03:34:00 PM 37.1823 28.1912 317° Northwest  Level Estimated
Fri 03:35:00 PM 37.2628 28.0979 317° Northwest  Level Estimated
Fri 03:36:00 PM 37.3433 28.0044 317° Northwest  Level Estimated
Fri 03:37:00 PM 37.4237 27.9107 317° Northwest  Level Estimated
Fri 03:38:00 PM 37.5040 27.8168 317° Northwest  Level Estimated
Fri 03:39:00 PM 37.5842 27.7227 317° Northwest  Level Estimated
Fri 03:40:00 PM 37.6644 27.6283 317° Northwest  Level Estimated
Fri 03:41:00 PM 37.7444 27.5338 317° Northwest  Level Estimated
Fri 03:42:00 PM 37.8245 27.4391 317° Northwest  Level Estimated
Fri 03:43:00 PM 37.9044 27.3442 317° Northwest  Level Estimated
Fri 03:44:00 PM 37.9842 27.2490 317° Northwest  Level Estimated
Fri 03:45:00 PM 38.0640 27.1537 317° Northwest  Level Estimated
Fri 03:46:00 PM 38.1437 27.0581 317° Northwest  Level Estimated
Fri 03:47:00 PM 38.2233 26.9624 317° Northwest  Level Estimated
Fri 03:48:00 PM 38.3029 26.8664 317° Northwest  Level Estimated
Fri 03:49:00 PM 38.3824 26.7702 317° Northwest  Level Estimated
Fri 03:50:00 PM 38.4617 26.6738 316° Northwest  Level Estimated
Fri 03:51:00 PM 38.5410 26.5772 316° Northwest  Level Estimated
Fri 03:52:00 PM 38.6203 26.4804 316° Northwest  Level Estimated
Fri 03:53:00 PM 38.6994 26.3834 316° Northwest  Level Estimated
Fri 03:54:00 PM 38.7785 26.2861 316° Northwest  Level Estimated
Fri 03:55:00 PM 38.8575 26.1887 316° Northwest  Level Estimated
Fri 03:56:00 PM 38.9364 26.0910 316° Northwest  Level Estimated
Fri 03:57:00 PM 39.0152 25.9931 316° Northwest  Level Estimated
Fri 03:58:00 PM 39.0939 25.8950 316° Northwest  Level Estimated
Fri 03:59:00 PM 39.1726 25.7967 316° Northwest  Level Estimated
Fri 04:00:00 PM 39.2512 25.6981 316° Northwest  Level Estimated
Fri 04:01:00 PM 39.3297 25.5993 316° Northwest  Level Estimated
Fri 04:02:00 PM 39.4081 25.5003 316° Northwest  Level Estimated
Fri 04:03:00 PM 39.4864 25.4011 316° Northwest  Level Estimated
Fri 04:04:00 PM 39.5647 25.3017 316° Northwest  Level Estimated
Fri 04:05:00 PM 39.6428 25.2020 316° Northwest  Level Estimated
Fri 04:06:00 PM 39.7209 25.1021 315° West  Level Estimated
Fri 04:07:00 PM 39.7989 25.0020 315° West  Level Estimated
Fri 04:08:00 PM 39.8768 24.9016 315° West  Level Estimated
Fri 04:09:00 PM 39.9546 24.8011 315° West  Level Estimated
Fri 04:10:00 PM 40.0367 24.6946 315° West  Level Estimated
Fri 04:11:00 PM 40.1187 24.5878 315° West  Level Estimated
Fri 04:12:00 PM 40.2006 24.4807 315° West  Level Estimated
Fri 04:13:00 PM 40.2825 24.3735 315° West  Level Estimated
Fri 04:14:00 PM 40.3642 24.2659 315° West  Level Estimated
Fri 04:15:00 PM 40.4458 24.1581 315° West  Level Estimated
Fri 04:16:00 PM 40.5274 24.0500 315° West  Level Estimated
Fri 04:17:00 PM 40.6088 23.9417 315° West  Level Estimated
Fri 04:18:00 PM 40.6901 23.8331 315° West  Level Estimated
Fri 04:19:00 PM 40.7713 23.7242 315° West  Level Estimated
Fri 04:20:00 PM 40.8525 23.6151 315° West  Level Estimated
Fri 04:21:00 PM 40.9335 23.5057 314° West  Level Estimated
Fri 04:22:00 PM 41.0144 23.3960 314° West  Level Estimated
Fri 04:23:00 PM 41.0952 23.2861 314° West  Level Estimated
Fri 04:24:00 PM 41.1759 23.1759 314° West  Level Estimated
Fri 04:25:00 PM 41.2565 23.0654 314° West  Level Estimated
Fri 04:26:00 PM 41.3370 22.9547 314° West  Level Estimated
Fri 04:27:00 PM 41.4174 22.8436 314° West  Level Estimated
Fri 04:28:00 PM 41.4977 22.7323 314° West  Level Estimated
Fri 04:29:00 PM 41.5778 22.6208 314° West  Level Estimated
Fri 04:30:00 PM 41.6579 22.5089 314° West  Level Estimated
Fri 04:31:00 PM 41.7379 22.3968 314° West  Level Estimated
Fri 04:32:00 PM 41.8177 22.2844 314° West  Level Estimated
Fri 04:33:00 PM 41.8974 22.1717 314° West  Level Estimated
Fri 04:34:00 PM 41.9771 22.0587 313° West  Level Estimated
Fri 04:35:00 PM 42.0566 21.9454 313° West  Level Estimated
Fri 04:36:00 PM 42.1360 21.8319 313° West  Level Estimated
Fri 04:37:00 PM 42.2153 21.7181 313° West  Level Estimated
Fri 04:38:00 PM 42.2945 21.6040 313° West  Level Estimated
Fri 04:39:00 PM 42.3735 21.4896 313° West  Level Estimated
Fri 04:40:00 PM 42.4525 21.3749 313° West  Level Estimated
Fri 04:41:00 PM 42.5313 21.2599 313° West  Level Estimated
Fri 04:42:00 PM 42.6100 21.1446 313° West  Level Estimated
Fri 04:43:00 PM 42.6886 21.0291 313° West  Level Estimated
Fri 04:44:00 PM 42.7671 20.9132 313° West  Level Estimated
Fri 04:45:00 PM 42.8455 20.7971 313° West  Level Estimated
Fri 04:46:00 PM 42.9238 20.6807 313° West  Level Estimated
Fri 04:47:00 PM 43.0019 20.5639 312° West  Level Estimated
Fri 04:48:00 PM 43.0799 20.4469 312° West  Level Estimated
Fri 04:49:00 PM 43.1578 20.3296 312° West  Level Estimated
Fri 04:50:00 PM 43.2356 20.2119 312° West  Level Estimated
Fri 04:51:00 PM 43.3133 20.0940 312° West  Level Estimated
Fri 04:52:00 PM 43.3908 19.9758 312° West  Level Estimated
Fri 04:53:00 PM 43.4682 19.8572 312° West  Level Estimated
Fri 04:54:00 PM 43.5455 19.7384 312° West  Level Estimated
Fri 04:55:00 PM 43.6227 19.6193 312° West  Level Estimated
Fri 04:56:00 PM 43.6997 19.4998 312° West  Level Estimated
Fri 04:57:00 PM 43.7766 19.3801 312° West  Level Estimated
Fri 04:58:00 PM 43.8534 19.2600 312° West  Level Estimated
Fri 04:59:00 PM 43.9301 19.1396 312° West  Level Estimated
Fri 05:00:00 PM 44.0066 19.0189 311° West  Level Estimated
Fri 05:01:00 PM 44.0830 18.8979 311° West  Level Estimated
Fri 05:02:00 PM 44.1593 18.7766 311° West  Level Estimated
Fri 05:03:00 PM 44.2355 18.6550 311° West  Level Estimated
Fri 05:04:00 PM 44.3115 18.5331 311° West  Level Estimated
Fri 05:05:00 PM 44.3874 18.4108 311° West  Level Estimated
Fri 05:06:00 PM 44.4632 18.2883 311° West  Level Estimated
Fri 05:07:00 PM 44.5388 18.1654 311° West  Level Estimated
Fri 05:08:00 PM 44.6143 18.0422 311° West  Level Estimated
Fri 05:09:00 PM 44.6897 17.9186 311° West  Level Estimated
Fri 05:10:00 PM 44.7649 17.7948 311° West  Level Estimated
Fri 05:11:00 PM 44.8400 17.6706 310° West  Level Estimated
Fri 05:12:00 PM 44.9150 17.5461 310° West  Level Estimated
Fri 05:13:00 PM 44.9898 17.4213 310° West  Level Estimated
Fri 05:14:00 PM 45.0645 17.2962 310° West  Level Estimated
Fri 05:15:00 PM 45.1391 17.1707 310° West  Level Estimated
Fri 05:16:00 PM 45.2135 17.0449 310° West  Level Estimated
Fri 05:17:00 PM 45.2878 16.9188 310° West  Level Estimated
Fri 05:18:00 PM 45.3619 16.7923 310° West  Level Estimated
Fri 05:18:44 PM 46.8784 18.3341 320° Northwest 446 513 38,000  Level FlightAware ADS-B (EGKA / ESH)
Fri 05:19:29 PM 46.9477 18.2472 319° Northwest 445 512 38,000  Level FlightAware ADS-B (EGKA / ESH)
Fri 05:20:48 PM 47.0712 18.0921 319° Northwest 439 505 38,000  Level FlightAware ADS-B (EGKA / ESH)
Fri 05:21:29 PM 47.1347 18.0119 319° Northwest 438 504 38,000  Level FlightAware ADS-B (EGKA / ESH)
Fri 05:22:09 PM 47.1948 17.9358 319° Northwest 438 504 38,000  Level FlightAware ADS-B (EGKA / ESH)
Fri 05:22:49 PM 47.2554 17.8587 319° Northwest 437 503 38,000  Level FlightAware ADS-B (EGKA / ESH)
Fri 05:23:28 PM 47.3170 17.7801 319° Northwest 439 505 38,000  Level FlightAware ADS-B (EGKA / ESH)
Fri 05:23:48 PM 47.3434 17.7463 318° Northwest 436 502 38,000  Level FlightAware ADS-B
Fri 05:24:29 PM 47.4033 17.6696 319° Northwest 441 507 38,000  Level FlightAware ADS-B (EGKA / ESH)
Fri 05:25:08 PM 47.4697 17.5843 319° Northwest 441 507 38,000  Level FlightAware ADS-B (EGKA / ESH)
Fri 05:25:47 PM 47.5288 17.5080 319° Northwest 441 507 38,000  Level FlightAware ADS-B (EGKA / ESH)
Fri 05:26:26 PM 47.5862 17.4338 318° Northwest 437 503 38,000  Level FlightAware ADS-B
Fri 05:26:56 PM 47.6309 17.3760 318° Northwest 438 504 38,000  Level FlightAware ADS-B
Fri 05:27:28 PM 47.6829 17.3083 319° Northwest 442 509 38,000  Level FlightAware ADS-B
Fri 05:28:02 PM 47.7306 17.2461 318° Northwest 440 506 38,000  Level FlightAware ADS-B
Fri 05:28:41 PM 47.7957 17.1610 319° Northwest 442 509 38,000  Level FlightAware ADS-B
Fri 05:29:18 PM 47.8470 17.0856 311° West 439 505 38,000  Level FlightAware ADS-B
Fri 05:29:48 PM 47.8835 17.0198 309° West 440 506 38,000  Level FlightAware ADS-B
Fri 05:30:27 PM 47.9374 16.9218 309° West 437 503 38,000  Level FlightAware ADS-B
Fri 05:31:09 PM 47.9913 16.8238 309° West 436 502 38,000  Level FlightAware ADS-B
Fri 05:31:48 PM 48.0391 16.7367 309° West 434 499 38,000  Level FlightAware ADS-B
Fri 05:32:20 PM 48.0784 16.6645 309° West 434 499 38,000  Level FlightAware ADS-B
Fri 05:32:50 PM 48.1183 16.5910 309° West 434 499 38,000  Level FlightAware ADS-B
Fri 05:33:21 PM 48.1573 16.5191 309° West 434 499 38,000  Level FlightAware ADS-B
Fri 05:33:58 PM 48.2021 16.4370 309° West 435 501 38,000  Level FlightAware ADS-B (EDDM / MUC)
Fri 05:34:30 PM 48.2410 16.3648 309° West 436 502 38,000  Level FlightAware ADS-B (EGKA / ESH)
Fri 05:35:06 PM 48.2873 16.2787 309° West 435 501 38,000  Level FlightAware ADS-B (EDDM / MUC)
Fri 05:35:47 PM 48.3388 16.1826 309° West 435 501 38,000  Level FlightAware ADS-B
Fri 05:36:20 PM 48.3819 16.1019 308° West 432 497 38,000  Level FlightAware ADS-B
Fri 05:36:32 PM 48.3950 16.0772 308° West 432 497 38,000  Level FlightAware ADS-B
Fri 05:37:02 PM 48.4345 16.0031 308° West 431 496 38,000  Level FlightAware ADS-B
Fri 05:37:30 PM 48.4687 15.9383 308° West 431 496 38,000  Level FlightAware ADS-B
Fri 05:37:47 PM 48.4909 15.8965 309° West 435 501 38,000  Level FlightAware ADS-B (EDDM / MUC)
Fri 05:38:19 PM 48.5313 15.8205 309° West 436 502 38,000  Level FlightAware ADS-B (EDDM / MUC)
Fri 05:38:51 PM 48.5442 15.7962 308° West 436 502 38,000  Level FlightAware ADS-B (ZSAM / XMN)
Fri 05:39:27 PM 48.6010 15.6880 309° West 436 502 38,000  Level FlightAware ADS-B (EDDM / MUC)
Fri 05:40:01 PM 48.6591 15.5773 308° West 436 502 38,000  Level FlightAware ADS-B (EDDM / MUC)
Fri 05:40:31 PM 48.6949 15.5086 308° West 435 501 38,000  Level FlightAware ADS-B (EDDM / MUC)
Fri 05:41:04 PM 48.7386 15.4249 308° West 431 496 38,000  Level FlightAware ADS-B
Fri 05:41:36 PM 48.7767 15.3515 308° West 433 498 38,000  Level FlightAware ADS-B (EDDM / MUC)
Fri 05:42:06 PM 48.8126 15.2827 308° West 430 495 38,000  Level FlightAware ADS-B
Fri 05:42:39 PM 48.8502 15.2101 308° West 432 497 38,000  Level FlightAware ADS-B (EDDM / MUC)
Fri 05:42:58 PM 48.8755 15.1610 307° West 429 494 38,000  Level FlightAware ADS-B
Fri 05:43:33 PM 48.9220 15.0710 309° West 429 494 38,000  Level FlightAware ADS-B (ETSE)
Fri 05:44:06 PM 48.9602 14.9999 309° West 428 493 38,000  Level FlightAware ADS-B (ETSE)
Fri 05:44:37 PM 48.9990 14.9277 309° West 428 493 38,000  Level FlightAware ADS-B (ETSE)
Fri 05:44:52 PM 49.0200 14.8884 307° West 429 494 38,000  Level FlightAware ADS-B
Fri 05:45:24 PM 49.0595 14.8140 309° West 428 493 38,000  Level FlightAware ADS-B (EDDM / MUC)
Fri 05:45:54 PM 49.0956 14.7461 309° West 428 493 38,000  Level FlightAware ADS-B (EDDM / MUC)
Fri 05:46:28 PM 49.1395 14.6632 309° West 428 493 38,000  Level FlightAware ADS-B (ETSE)
Fri 05:46:58 PM 49.1755 14.5942 309° West 429 494 38,000  Level FlightAware ADS-B (ETSE)
Fri 05:47:39 PM 49.2262 14.4975 309° West 430 495 38,000  Level FlightAware ADS-B (EDDM / MUC)
Fri 05:48:11 PM 49.2661 14.4213 309° West 430 495 38,000  Level FlightAware ADS-B (ETSE)
Fri 05:48:41 PM 49.3011 14.3541 309° West 428 493 38,000  Level FlightAware ADS-B (ETSE)
Fri 05:49:21 PM 49.3529 14.2547 309° West 428 493 38,000  Level FlightAware ADS-B (ETSE)
Fri 05:49:52 PM 49.3899 14.1833 308° West 429 494 38,000  Level FlightAware ADS-B (EDDM / MUC)
Fri 05:50:23 PM 49.4239 14.1175 308° West 428 493 38,000  Level FlightAware ADS-B
Fri 05:51:04 PM 49.4731 14.0219 308° West 429 494 38,000  Level FlightAware ADS-B (EDDM / MUC)
Fri 05:51:44 PM 49.5225 13.9258 308° West 432 497 38,000  Level FlightAware ADS-B (EDDM / MUC)
Fri 05:52:27 PM 49.5767 13.8204 308° West 433 498 38,000  Level FlightAware ADS-B (ZSAM / XMN)
Fri 05:52:57 PM 49.6183 13.7387 308° West 434 499 38,000 95 Level FlightAware ADS-B (ZSAM / XMN)
Fri 05:53:30 PM 49.6592 13.6578 308° West 433 498 38,100  Climbing FlightAware ADS-B (EGKA / ESH)
Fri 05:54:03 PM 49.7007 13.5753 308° West 432 497 38,000 -95 Descending FlightAware ADS-B
Fri 05:54:33 PM 49.7351 13.5071 308° West 431 496 38,000  Level FlightAware ADS-B
Fri 05:55:05 PM 49.7753 13.4272 308° West 428 493 38,000  Level FlightAware ADS-B
Fri 05:55:38 PM 49.8152 13.3480 308° West 428 493 38,000  Level FlightAware ADS-B
Fri 05:56:11 PM 49.8546 13.2698 308° West 428 493 38,000  Level FlightAware ADS-B
Fri 05:56:42 PM 49.8931 13.1929 308° West 428 493 38,000  Level FlightAware ADS-B
Fri 05:57:15 PM 49.9329 13.1130 308° West 427 491 38,000  Level FlightAware ADS-B
Fri 05:57:45 PM 49.9690 13.0399 308° West 429 494 38,000  Level FlightAware ADS-B
Fri 05:58:17 PM 50.0068 12.9636 308° West 428 493 38,000  Level FlightAware ADS-B
Fri 05:58:48 PM 50.0452 12.8862 308° West 429 494 38,000  Level FlightAware ADS-B
Fri 05:59:21 PM 50.0845 12.8060 307° West 428 493 38,000  Level FlightAware ADS-B
Fri 05:59:53 PM 50.1220 12.7294 307° West 427 491 38,000  Level FlightAware ADS-B
Fri 06:00:25 PM 50.1604 12.6508 307° West 426 490 38,000  Level FlightAware ADS-B
Fri 06:00:58 PM 50.1987 12.5725 307° West 425 489 38,000  Level FlightAware ADS-B
Fri 06:01:29 PM 50.2368 12.4938 307° West 426 490 38,000  Level FlightAware ADS-B
Fri 06:01:37 PM 50.2452 12.4758 301° West 426 490 38,000  Level FlightAware ADS-B (EDDM / MUC)
Fri 06:01:47 PM 50.2552 12.4485 295° West 426 490 38,000  Level FlightAware ADS-B
Fri 06:01:59 PM 50.2641 12.4117 288° West 428 493 38,000  Level FlightAware ADS-B
Fri 06:02:30 PM 50.2832 12.3198 289° West 428 493 38,000  Level FlightAware ADS-B
Fri 06:03:00 PM 50.3022 12.2339 289° West 428 493 38,000  Level FlightAware ADS-B
Fri 06:03:33 PM 50.3241 12.1364 289° West 428 493 38,000  Level FlightAware ADS-B (ETSE)
Fri 06:04:03 PM 50.3427 12.0524 289° West 427 491 38,000  Level FlightAware ADS-B (ETSE)
Fri 06:04:34 PM 50.3622 11.9637 289° West 426 490 38,000  Level FlightAware ADS-B
Fri 06:05:07 PM 50.3863 11.8678 293° West 425 489 38,000  Level FlightAware ADS-B
Fri 06:05:39 PM 50.4104 11.7779 293° West 425 489 38,000  Level FlightAware ADS-B
Fri 06:06:12 PM 50.4341 11.6872 292° West 424 488 38,000  Level FlightAware ADS-B
Fri 06:06:44 PM 50.4582 11.5925 292° West 423 487 38,000  Level FlightAware ADS-B
Fri 06:07:15 PM 50.4816 11.5008 292° West 425 489 38,000  Level FlightAware ADS-B
Fri 06:07:48 PM 50.5049 11.4080 292° West 427 491 38,000  Level FlightAware ADS-B
Fri 06:08:11 PM 50.5208 11.3445 291° West 428 493 38,000  Level FlightAware ADS-B (EDDM / MUC)
Fri 06:08:41 PM 50.5429 11.2568 292° West 431 496 38,000  Level FlightAware ADS-B
Fri 06:09:14 PM 50.5669 11.1623 292° West 433 498 38,000 94 Level FlightAware ADS-B
Fri 06:09:45 PM 50.5906 11.0675 291° West 433 498 38,100 91 Climbing FlightAware ADS-B
Fri 06:10:20 PM 50.6150 10.9691 291° West 430 495 38,100  Level FlightAware ADS-B (ETSE)
Fri 06:10:53 PM 50.6398 10.8684 291° West 428 493 38,100 -95 Level FlightAware ADS-B
Fri 06:11:23 PM 50.6602 10.7851 291° West 426 490 38,000 -95 Descending FlightAware ADS-B
Fri 06:11:56 PM 50.6841 10.6872 291° West 425 489 38,000  Level FlightAware ADS-B
Fri 06:12:28 PM 50.7057 10.5981 291° West 425 489 38,000  Level FlightAware ADS-B
Fri 06:12:59 PM 50.7279 10.5063 291° West 424 488 38,000  Level FlightAware ADS-B
Fri 06:13:29 PM 50.7486 10.4209 291° West 424 488 38,000  Level FlightAware ADS-B (ETSE)
Fri 06:14:00 PM 50.7706 10.3298 291° West 425 489 38,000  Level FlightAware ADS-B (ETSE)
Fri 06:14:35 PM 50.7926 10.2384 291° West 426 490 38,000  Level FlightAware ADS-B
Fri 06:15:09 PM 50.8112 10.1606 291° West 426 490 38,000  Level FlightAware ADS-B (ETSE)
Fri 06:15:42 PM 50.8331 10.0683 291° West 427 491 38,000  Level FlightAware ADS-B
Fri 06:16:53 PM 50.8893 9.8308 290° West 427 491 38,000  Level FlightAware ADS-B
Fri 06:17:59 PM 50.8699 9.9126 290° West 426 490 38,000  Level FlightAware ADS-B (EDDM / MUC)
Fri 06:19:31 PM 50.9675 9.4951 290° West 423 487 38,000  Level FlightAware ADS-B (EDKL)
Fri 06:20:15 PM 51.0081 9.3183 290° West 423 487 38,000  Level FlightAware ADS-B (EDKL)
Fri 06:22:39 PM 51.0426 9.1561 288° West 419 482 38,000  Level FlightAware ADS-B (EDDM / MUC)
Fri 06:24:00 PM 51.1493 8.6423 288° West 424 488 38,000  Level FlightAware ADS-B (EDKL)
Fri 06:25:41 PM 51.2038 8.3727 288° West 425 489 38,000  Level FlightAware ADS-B (EDKL)
Fri 06:26:20 PM 51.2444 8.1732 288° West 423 487 38,000  Level FlightAware ADS-B (EDKL)
Fri 06:26:51 PM 51.2606 8.0921 288° West 424 488 38,000  Level FlightAware ADS-B (EDKL)
Fri 06:27:21 PM 51.2811 7.9881 288° West 423 487 38,000  Level FlightAware ADS-B (EDKL)
Fri 06:28:01 PM 51.3043 7.8704 288° West 423 487 38,000  Level FlightAware ADS-B (EDKL)
Fri 06:28:19 PM 51.3165 7.8085 286° West 420 483 38,000  Level FlightAware ADS-B (EHGR / GLZ)
Fri 06:28:50 PM 51.3338 7.7196 287° West 423 487 38,000  Level FlightAware ADS-B (EDKL)
Fri 06:29:21 PM 51.3499 7.6368 287° West 426 490 38,000  Level FlightAware ADS-B (EDKL)
Fri 06:29:55 PM 51.3719 7.5238 287° West 429 494 38,000  Level FlightAware ADS-B (EHGR / GLZ)
Fri 06:30:25 PM 51.3894 7.4333 286° West 429 494 38,000  Level FlightAware ADS-B (EHGR / GLZ)
Fri 06:30:40 PM 51.3985 7.3853 286° West 429 494 38,000  Level FlightAware ADS-B (EHGR / GLZ)
Fri 06:30:50 PM 51.4075 7.3379 287° West 431 496 38,000 150 Level FlightAware ADS-B
Fri 06:31:20 PM 51.4198 7.2744 287° West 431 496 38,100 98 Climbing FlightAware ADS-B (EDKL)
Fri 06:31:51 PM 51.4388 7.1751 287° West 431 496 38,100 -98 Level FlightAware ADS-B (EDKL)
Fri 06:32:21 PM 51.4572 7.0782 286° West 428 493 38,000 -100 Descending FlightAware ADS-B (EHGR / GLZ)
Fri 06:32:51 PM 51.4711 7.0036 287° West 431 496 38,000  Level FlightAware ADS-B (EDKL)
Fri 06:33:21 PM 51.4854 6.9269 287° West 430 495 38,000  Level FlightAware ADS-B (EDKL)
Fri 06:34:01 PM 51.5124 6.7832 288° West 430 495 38,000  Level FlightAware ADS-B (EDKL)
Fri 06:34:21 PM 51.5278 6.7135 291° West 429 494 38,000  Level FlightAware ADS-B (EHGR / GLZ)
Fri 06:35:00 PM 51.5546 6.5996 291° West 428 493 38,000  Level FlightAware ADS-B (EDKL)
Fri 06:35:31 PM 51.5751 6.5095 290° West 427 491 38,000  Level FlightAware ADS-B (EDKL)
Fri 06:35:59 PM 51.5982 6.4054 289° West 425 489 38,000  Level FlightAware ADS-B
Fri 06:36:18 PM 51.6082 6.3597 290° West 425 489 38,000  Level FlightAware ADS-B
Fri 06:36:49 PM 51.6266 6.2764 290° West 423 487 38,000  Level FlightAware ADS-B (LRBS / BBU)
Fri 06:36:59 PM 51.6375 6.2266 289° West 423 487 38,000  Level FlightAware ADS-B
Fri 06:37:07 PM 51.6394 6.2178 288° West 420 483 38,000  Level FlightAware ADS-B
Fri 06:37:42 PM 51.6596 6.1250 289° West 423 487 38,000  Level FlightAware ADS-B (EDKL)
Fri 06:37:47 PM 51.6644 6.1030 288° West 420 483 38,000  Level FlightAware ADS-B (EHGR / GLZ)
Fri 06:38:19 PM 51.6841 6.0121 288° West 420 483 38,000  Level FlightAware ADS-B (EHGR / GLZ)
Fri 06:38:52 PM 51.6847 6.0094 289° West 423 487 38,000  Level FlightAware ADS-B (EDKL)
Fri 06:40:02 PM 51.7506 5.7041 288° West 422 486 38,000  Level FlightAware ADS-B (EHGR / GLZ)
Fri 06:40:43 PM 51.7766 5.5817 289° West 425 489 38,000  Level FlightAware ADS-B
Fri 06:40:47 PM 51.7811 5.5610 289° West 425 489 38,000  Level FlightAware ADS-B
Fri 06:41:03 PM 51.7891 5.5235 289° West 426 490 38,000  Level FlightAware ADS-B
Fri 06:41:33 PM 51.8075 5.4366 289° West 425 489 38,000  Level FlightAware ADS-B
Fri 06:41:47 PM 51.8175 5.3891 288° West 423 487 38,000  Level FlightAware ADS-B (EHGR / GLZ)
Fri 06:42:21 PM 51.8377 5.2930 289° West 426 490 38,000  Level FlightAware ADS-B
Fri 06:42:41 PM 51.8513 5.2283 289° West 427 491 38,000  Level FlightAware ADS-B
Fri 06:43:11 PM 51.8708 5.1357 288° West 425 489 38,000  Level FlightAware ADS-B (EHGR / GLZ)
Fri 06:43:41 PM 51.8868 5.0584 289° West 428 493 38,000  Level FlightAware ADS-B
Fri 06:43:52 PM 51.8964 5.0118 287° West 425 489 38,000  Level FlightAware ADS-B (EHGR / GLZ)
Fri 06:44:09 PM 51.9068 4.9614 287° West 425 489 38,000  Level FlightAware ADS-B (EHGR / GLZ)
Fri 06:44:42 PM 51.9278 4.8594 288° West 426 490 38,000  Level FlightAware ADS-B
Fri 06:45:14 PM 51.9473 4.7635 288° West 424 488 38,000  Level FlightAware ADS-B (EHGR / GLZ)
Fri 06:45:45 PM 51.9661 4.6707 288° West 422 486 38,000  Level FlightAware ADS-B
Fri 06:46:15 PM 51.9812 4.5965 288° West 422 486 38,000  Level FlightAware ADS-B
Fri 06:46:47 PM 52.0035 4.4859 288° West 423 487 38,000  Level FlightAware ADS-B (LFOM)
Fri 06:47:17 PM 52.0215 4.3967 288° West 423 487 38,000  Level FlightAware ADS-B (EGLF / FAB)
Fri 06:47:47 PM 52.0381 4.3140 288° West 423 487 38,000  Level FlightAware ADS-B (LFOM)
Fri 06:48:19 PM 52.0592 4.2078 288° West 423 487 38,000  Level FlightAware ADS-B (EGLC / LCY)
Fri 06:48:50 PM 52.0775 4.1151 288° West 423 487 38,000  Level FlightAware ADS-B (EGLF / FAB)
Fri 06:49:20 PM 52.0954 4.0238 288° West 422 486 38,000  Level FlightAware ADS-B (EGLF / FAB)
Fri 06:49:50 PM 52.1130 3.9340 288° West 421 484 38,000  Level FlightAware ADS-B (EGLF / FAB)
Fri 06:50:22 PM 52.1318 3.8377 288° West 421 484 38,000  Level FlightAware ADS-B (EHGR / GLZ)
Fri 06:50:56 PM 52.1431 3.7800 287° West 421 484 38,000  Level FlightAware ADS-B
Fri 06:51:14 PM 52.1615 3.6841 287° West 422 486 38,000  Level FlightAware ADS-B
Fri 06:51:28 PM 52.1703 3.6382 286° West 420 483 38,000  Level FlightAware ADS-B (EHGR / GLZ)
Fri 06:51:59 PM 52.1884 3.5438 286° West 421 484 38,000  Level FlightAware ADS-B (EHGR / GLZ)
Fri 06:52:30 PM 52.2063 3.4514 288° West 424 488 38,000  Level FlightAware ADS-B (EGLF / FAB)
Fri 06:52:57 PM 52.2223 3.3678 286° West 421 484 38,000 103 Level FlightAware ADS-B (EHGR / GLZ)
Fri 06:53:28 PM 52.2391 3.2793 287° West 421 484 38,100  Climbing FlightAware ADS-B (LFOM)
Fri 06:54:00 PM 52.2582 3.1789 287° West 420 483 38,000 -111 Descending FlightAware ADS-B (EGLF / FAB)
Fri 06:54:22 PM 52.2709 3.1121 287° West 419 482 38,000  Level FlightAware ADS-B
Fri 06:54:30 PM 52.2755 3.0877 287° West 419 482 38,000  Level FlightAware ADS-B (EGLF / FAB)
Fri 06:54:59 PM 52.2910 3.0037 287° West 419 482 38,000  Level FlightAware ADS-B
Fri 06:55:00 PM 52.2911 3.0032 287° West 420 483 38,000  Level FlightAware ADS-B (EGLF / FAB)
Fri 06:55:21 PM 52.3032 2.9369 286° West 417 480 38,000  Level FlightAware ADS-B
Fri 06:55:28 PM 52.3078 2.9117 286° West 417 480 38,000  Level FlightAware ADS-B (EHGR / GLZ)
Fri 06:55:30 PM 52.3087 2.9071 287° West 420 483 38,000  Level FlightAware ADS-B
Fri 06:55:58 PM 52.3240 2.8237 287° West 421 484 38,000  Level FlightAware ADS-B (EGSR)
Fri 06:56:01 PM 52.3261 2.8121 287° West 421 484 38,000  Level FlightAware ADS-B
Fri 06:56:29 PM 52.3419 2.7267 287° West 421 484 38,000  Level FlightAware ADS-B
Fri 06:56:35 PM 52.3451 2.7092 287° West 421 484 38,000  Level FlightAware ADS-B
Fri 06:56:49 PM 52.3522 2.6703 286° West 419 482 38,000  Level FlightAware ADS-B
Fri 06:56:57 PM 52.3572 2.6430 286° West 419 482 38,000  Level FlightAware ADS-B (KSCH)
Fri 06:57:09 PM 52.3641 2.6061 287° West 421 484 38,000  Level FlightAware ADS-B
Fri 06:57:30 PM 52.3755 2.5433 287° West 421 484 38,000  Level FlightAware ADS-B (EGLF / FAB)
Fri 06:57:47 PM 52.3847 2.4926 287° West 421 484 38,000  Level FlightAware ADS-B
Fri 06:58:00 PM 52.3921 2.4518 286° West 420 483 38,000 200 Level FlightAware ADS-B (EGLF / FAB)
Fri 06:58:17 PM 52.4013 2.3999 286° West 419 482 38,100  Climbing FlightAware ADS-B
Fri 06:58:30 PM 52.4076 2.3644 286° West 419 482 38,000 -194 Descending FlightAware ADS-B (EGLF / FAB)
Fri 06:58:48 PM 52.4180 2.3063 286° West 418 481 38,000  Level FlightAware ADS-B
Fri 06:59:01 PM 52.4248 2.2684 286° West 417 480 38,000  Level FlightAware ADS-B (EHGR / GLZ)
Fri 06:59:23 PM 52.4370 2.1999 286° West 418 481 38,000  Level FlightAware ADS-B
Fri 06:59:39 PM 52.4457 2.1521 286° West 418 481 38,000  Level FlightAware ADS-B
Fri 06:59:54 PM 52.4537 2.1069 286° West 419 482 38,000  Level FlightAware ADS-B
Fri 07:00:10 PM 52.4609 2.0666 286° West 419 482 38,000  Level FlightAware ADS-B
Fri 07:00:24 PM 52.4702 2.0141 286° West 420 483 38,000  Level FlightAware ADS-B
Fri 07:00:40 PM 52.4785 1.9674 286° West 420 483 38,000  Level FlightAware ADS-B (EGLF / FAB)
Fri 07:00:56 PM 52.4871 1.9185 286° West 420 483 38,000  Level FlightAware ADS-B
Fri 07:01:10 PM 52.4944 1.8762 286° West 419 482 38,000  Level FlightAware ADS-B (EGLF / FAB)
Fri 07:01:26 PM 52.5034 1.8248 286° West 419 482 38,000 162 Level FlightAware ADS-B
Fri 07:01:47 PM 52.5142 1.7625 286° West 418 481 38,100 188 Climbing FlightAware ADS-B (KSCH)
Fri 07:01:58 PM 52.5200 1.7289 286° West 418 481 38,100  Level FlightAware ADS-B
Fri 07:02:17 PM 52.5300 1.6705 286° West 416 479 38,100 -200 Level FlightAware ADS-B (EHGR / GLZ)
Fri 07:02:28 PM 52.5359 1.6364 286° West 415 478 38,000 -200 Descending FlightAware ADS-B
Fri 07:02:47 PM 52.5456 1.5802 286° West 415 478 38,000  Level FlightAware ADS-B (EHGR / GLZ)
Fri 07:02:59 PM 52.5518 1.5436 286° West 414 476 38,000  Level FlightAware ADS-B
Fri 07:03:20 PM 52.5625 1.4812 286° West 414 476 38,000  Level FlightAware ADS-B (EGLF / FAB)
Fri 07:03:37 PM 52.5714 1.4297 286° West 413 475 38,000  Level FlightAware ADS-B
Fri 07:03:50 PM 52.5781 1.3906 286° West 414 476 38,000  Level FlightAware ADS-B (EGLF / FAB)
Fri 07:04:12 PM 52.5896 1.3230 286° West 413 475 38,000  Level FlightAware ADS-B
Fri 07:04:20 PM 52.5935 1.3004 286° West 413 475 38,000 -158 Level FlightAware ADS-B (EGLF / FAB)
Fri 07:04:50 PM 52.6092 1.2074 286° West 412 474 37,900  Descending FlightAware UK
Fri 07:04:50 PM 52.6078 1.2156 286° West 412 474 38,000 1,200 Climbing FlightAware ADS-B (EGLF / FAB)
Fri 07:04:55 PM 52.6112 1.1957 285° West 412 474 38,000  Level FlightAware ADS-B
Fri 07:05:06 PM 52.6156 1.1694 286° West 412 474 38,000  Level FlightAware ADS-B (EGLF / FAB)
Fri 07:05:12 PM 52.6196 1.1456 284° West 410 472 38,000  Level FlightAware ADS-B (KSCH)
Fri 07:05:25 PM 52.6267 1.1034 285° West 411 473 38,000  Level FlightAware ADS-B
Fri 07:05:43 PM 52.6357 1.0495 285° West 411 473 38,000  Level FlightAware ADS-B (EGLC / LCY)
Fri 07:05:56 PM 52.6422 1.0104 285° West 412 474 38,000  Level FlightAware ADS-B
Fri 07:06:26 PM 52.6575 0.9180 285° West 412 474 38,000  Level FlightAware UK
Fri 07:06:27 PM 52.6569 0.9220 285° West 413 475 38,000  Level FlightAware ADS-B
Fri 07:06:36 PM 52.6622 0.8900 284° West 411 473 38,000  Level FlightAware ADS-B (KSCH)
Fri 07:06:57 PM 52.6728 0.8256 285° West 412 474 38,000  Level FlightAware ADS-B
Fri 07:07:06 PM 52.6769 0.8011 284° West 409 471 38,000  Level FlightAware ADS-B (EHGR / GLZ)
Fri 07:07:23 PM 52.6852 0.7503 285° West 412 474 38,000  Level FlightAware ADS-B (EGSR)
Fri 07:07:31 PM 52.6890 0.7276 285° West 411 473 38,000  Level FlightAware ADS-B
Fri 07:07:41 PM 52.6944 0.6943 284° West 409 471 38,000  Level FlightAware ADS-B
Fri 07:07:45 PM 52.6964 0.6821 284° West 409 471 38,000  Level FlightAware ADS-B (EHGR / GLZ)
Fri 07:08:00 PM 52.7037 0.6370 284° West 408 470 38,000  Level FlightAware ADS-B (EHGR / GLZ)
Fri 07:08:02 PM 52.7047 0.6313 285° West 410 472 38,000  Level FlightAware ADS-B
Fri 07:08:03 PM 52.7047 0.6312 284° West 408 470 38,000  Level FlightAware ADS-B (KEGE)
Fri 07:08:14 PM 52.7108 0.5935 284° West 408 470 38,000  Level FlightAware ADS-B (KSCH)
Fri 07:08:23 PM 52.7151 0.5672 284° West 407 468 38,000  Level FlightAware ADS-B (KEGE)
Fri 07:08:32 PM 52.7194 0.5409 285° West 409 471 38,000  Level FlightAware ADS-B
Fri 07:08:35 PM 52.7204 0.5350 285° West 409 471 38,000  Level FlightAware ADS-B
Fri 07:08:51 PM 52.7280 0.4876 284° West 407 468 38,000  Level FlightAware ADS-B
Fri 07:08:55 PM 52.7305 0.4717 284° West 407 468 38,000  Level FlightAware ADS-B (EHGR / GLZ)
Fri 07:09:03 PM 52.7341 0.4493 285° West 409 471 38,000 -462 Level FlightAware ADS-B
Fri 07:09:08 PM 52.7366 0.4339 284° West 408 470 37,900 -857 Descending FlightAware ADS-B
Fri 07:09:17 PM 52.7409 0.4069 284° West 407 468 37,800 -947 Descending FlightAware ADS-B (EGDM)
Fri 07:09:27 PM 52.7457 0.3769 284° West 405 466 37,600 -1,200 Descending FlightAware ADS-B (KEGE)
Fri 07:09:32 PM 52.7480 0.3629 284° West 405 466 37,500 -1,000 Descending FlightAware ADS-B
Fri 07:09:33 PM 52.7489 0.3571 285° West 405 466 37,500  Level FlightAware ADS-B
Fri 07:09:38 PM 52.7512 0.3425 284° West 403 464 37,500 -462 Level FlightAware ADS-B
Fri 07:09:46 PM 52.7542 0.3232 285° West 403 464 37,400 -889 Descending FlightAware ADS-B (KSCH)
Fri 07:10:05 PM 52.7640 0.2623 285° West 400 460 37,100 -1,050 Descending FlightAware ADS-B
Fri 07:10:26 PM 52.7723 0.2097 284° West 399 459 36,700 -1,000 Descending FlightAware ADS-B
Fri 07:10:35 PM 52.7779 0.1741 284° West 397 457 36,600 -774 Descending FlightAware ADS-B
Fri 07:10:57 PM 52.7879 0.1102 285° West 394 453 36,300 -909 Descending FlightAware ADS-B
Fri 07:11:08 PM 52.7929 0.0787 285° West 392 451 36,100 -1,000 Descending FlightAware ADS-B
Fri 07:11:27 PM 52.8009 0.0280 285° West 389 448 35,800 -800 Descending FlightAware ADS-B
Fri 07:11:38 PM 52.8065 -0.0074 285° West 387 445 35,700 -938 Descending FlightAware ADS-B
Fri 07:11:59 PM 52.8160 -0.0676 285° West 389 448 35,300 -968 Descending FlightAware ADS-B
Fri 07:12:09 PM 52.8205 -0.0957 285° West 391 450 35,200 -1,143 Descending FlightAware ADS-B
Fri 07:12:20 PM 52.8204 -0.0957 285° West 391 450 34,900 -1,263 Descending FlightAware ADS-B
Fri 07:12:28 PM 52.8268 -0.1357 285° West 391 450 34,800 -1,200 Descending FlightAware ADS-B (EGLC / LCY)
Fri 07:12:40 PM 52.8343 -0.1840 284° West 389 448 34,500 -2,270 Descending FlightAware ADS-B
Fri 07:13:05 PM 52.8454 -0.2567 284° West 387 445 33,400 -2,600 Descending FlightAware ADS-B (EGDM)
Fri 07:13:10 PM 52.8476 -0.2708 284° West 387 445 33,200 -2,500 Descending FlightAware ADS-B
Fri 07:13:17 PM 52.8474 -0.2696 284° West 387 445 32,900 -3,188 Descending FlightAware ADS-B
Fri 07:13:42 PM 52.8615 -0.3612 284° West 389 448 31,500 -3,375 Descending FlightAware ADS-B
Fri 07:13:49 PM 52.8644 -0.3808 284° West 390 449 31,100 -3,400 Descending FlightAware ADS-B (KEGE)
Fri 07:14:12 PM 52.8750 -0.4493 284° West 393 452 29,800 -3,484 Descending FlightAware ADS-B
Fri 07:14:20 PM 52.8783 -0.4711 284° West 395 455 29,300 -3,600 Descending FlightAware ADS-B (EGLF / FAB)
Fri 07:14:42 PM 52.8886 -0.5379 284° West 404 465 28,000 -3,400 Descending FlightAware ADS-B
Fri 07:14:50 PM 52.8915 -0.5569 284° West 407 468 27,600 -2,710 Descending FlightAware ADS-B (EGLF / FAB)
Fri 07:15:13 PM 52.9024 -0.6310 284° West 409 471 26,600 -2,400 Descending FlightAware ADS-B
Fri 07:15:20 PM 52.9044 -0.6446 284° West 412 474 26,400 -2,600 Descending FlightAware ADS-B (EGLF / FAB)
Fri 07:15:43 PM 52.9162 -0.7242 284° West 419 482 25,300 -3,000 Descending FlightAware ADS-B
Fri 07:15:50 PM 52.9191 -0.7433 284° West 420 483 24,900 -3,097 Descending FlightAware ADS-B (EGLF / FAB)
Fri 07:16:14 PM 52.9304 -0.8192 284° West 413 475 23,700 -3,000 Descending FlightAware ADS-B
Fri 07:16:20 PM 52.9332 -0.8375 284° West 411 473 23,400 -2,903 Descending FlightAware ADS-B (EGLF / FAB)
Fri 07:16:45 PM 52.9444 -0.9134 284° West 404 465 22,200 -2,800 Descending FlightAware ADS-B
Fri 07:16:50 PM 52.9463 -0.9264 284° West 403 464 22,000 -2,640 Descending FlightAware ADS-B (EGLF / FAB)
Fri 07:17:10 PM 52.9552 -0.9863 284° West 396 456 21,100 -2,769 Descending FlightAware ADS-B (EGLF / FAB)
Fri 07:17:16 PM 52.9577 -1.0032 284° West 395 455 20,800 -2,625 Descending FlightAware ADS-B
Fri 07:17:42 PM 52.9690 -1.0802 284° West 389 448 19,700 -2,516 Descending FlightAware ADS-B
Fri 07:17:47 PM 52.9712 -1.0949 284° West 388 447 19,500 -2,400 Descending FlightAware ADS-B
Fri 07:17:52 PM 52.9730 -1.1079 284° West 387 445 19,300 -2,609 Descending FlightAware ADS-B
Fri 07:18:10 PM 52.9809 -1.1616 284° West 385 443 18,500 -2,640 Descending FlightAware ADS-B (EGLF / FAB)
Fri 07:18:17 PM 52.9838 -1.1817 284° West 384 442 18,200 -2,667 Descending FlightAware ADS-B
Fri 07:18:28 PM 52.9884 -1.2134 283° West 384 442 17,700 -2,364 Descending FlightAware ADS-B (EGLF / FAB)
Fri 07:18:50 PM 52.9968 -1.2717 284° West 381 438 16,900 -2,250 Descending FlightAware ADS-B (EGLF / FAB)
Fri 07:18:52 PM 52.9981 -1.2807 284° West 381 438 16,800 -2,800 Descending FlightAware ADS-B
Fri 07:19:05 PM 53.0033 -1.3159 282° West 378 435 16,200 -2,647 Descending FlightAware ADS-B
Fri 07:19:26 PM 53.0122 -1.3771 284° West 379 436 15,300 -2,438 Descending FlightAware ADS-B
Fri 07:19:37 PM 53.0163 -1.4061 283° West 376 433 14,900 -1,833 Descending FlightAware ADS-B
Fri 07:20:02 PM 53.0264 -1.4766 283° West 366 421 14,200 -1,742 Descending FlightAware ADS-B
Fri 07:20:08 PM 53.0285 -1.4916 283° West 362 417 14,000 -2,500 Descending FlightAware ADS-B (KEGE)
Fri 07:20:38 PM 53.0398 -1.5722 283° West 360 414 12,700 -2,419 Descending FlightAware ADS-B
Fri 07:21:10 PM 53.0520 -1.6592 283° West 353 406 11,500 -2,419 Descending FlightAware ADS-B (EGLF / FAB)
Fri 07:21:40 PM 53.0627 -1.7365 283° West 353 406 10,200 -2,381 Descending FlightAware ADS-B (EGLF / FAB)
Fri 07:22:13 PM 53.0747 -1.8213 282° West 341 392 9,000 -2,233 Descending FlightAware ADS-B
Fri 07:22:23 PM 53.0784 -1.8475 284° West 342 394 8,600 -1,680 Descending FlightAware ADS-B (KEGE)
Fri 07:22:38 PM 53.0840 -1.8860 284° West 341 392 8,300 -1,297 Descending FlightAware ADS-B
Fri 07:23:00 PM 53.0946 -1.9390 294° West 335 386 7,800 -1,622 Descending FlightAware ADS-B
Fri 07:23:15 PM 53.1039 -1.9723 296° West 333 383 7,300 -2,323 Descending FlightAware ADS-B
Fri 07:23:31 PM 53.1145 -2.0084 296° West 333 383 6,600 -2,833 Descending FlightAware ADS-B
Fri 07:23:51 PM 53.1292 -2.0583 296° West 334 384 5,600 -2,432 Descending FlightAware ADS-B
Fri 07:24:08 PM 53.1404 -2.0959 296° West 331 381 5,100 -1,263 Descending FlightAware ADS-B
Fri 07:24:29 PM 53.1542 -2.1435 295° West 327 376 4,800 -1,029 Descending FlightAware ADS-B (EGCC / MAN)
Fri 07:24:43 PM 53.1634 -2.1758 294° West 316 364 4,500 -1,200 Descending FlightAware ADS-B (KEGE)
Fri 07:24:54 PM 53.1701 -2.1988 295° West 311 358 4,300 -1,600 Descending FlightAware ADS-B
Fri 07:25:13 PM 53.1826 -2.2395 296° West 301 346 3,700 -1,765 Descending FlightAware ADS-B
Fri 07:25:28 PM 53.1925 -2.2713 297° West 297 342 3,300 -1,235 Descending FlightAware ADS-B (EGCC / MAN)
Fri 07:25:47 PM 53.2038 -2.3081 297° West 286 329 3,000 -857 Descending FlightAware ADS-B
Fri 07:26:03 PM 53.2132 -2.3388 295° West 271 312 2,800 -857 Descending FlightAware ADS-B (KEGE)
Fri 07:26:22 PM 53.2233 -2.3721 297° West 261 300 2,500 -878 Descending FlightAware ADS-B
Fri 07:26:44 PM 53.2354 -2.4118 295° West 240 276 2,200 -714 Descending FlightAware ADS-B (KEGE)
Fri 07:27:04 PM 53.2474 -2.4412 323° Northwest 225 259 2,000 -480 Descending FlightAware ADS-B (KEGE)
Fri 07:27:09 PM 53.2524 -2.4456 337° Northwest 219 252 2,000  Level FlightAware ADS-B (EGCC / MAN)
Fri 07:27:14 PM 53.2565 -2.4474 348° North 214 246 2,000  Level FlightAware ADS-B
Fri 07:27:23 PM 53.2657 -2.4460 16° North 200 230 2,000 -429 Level FlightAware ADS-B (KEGE)
Fri 07:27:28 PM 53.2701 -2.4424 29° Northeast 204 235 1,900 -600 Descending FlightAware ADS-B (EGCC / MAN)
Fri 07:27:43 PM 53.2785 -2.4299 48° Northeast 193 222 1,800 -300 Descending FlightAware ADS-B
Fri 07:27:48 PM 53.2823 -2.4224 52° Northeast 182 209 1,800 -692 Level FlightAware ADS-B (YWST)
Fri 07:28:09 PM 53.2932 -2.4001 51° Northeast 165 190 1,500 -889 Descending FlightAware ADS-B (EGCC / MAN)
Fri 07:28:15 PM 53.2958 -2.3947 51° Northeast 162 186 1,400 -720 Descending FlightAware ADS-B (KEGE)
Fri 07:28:34 PM 53.3043 -2.3772 53° Northeast 144 166 1,200 -686 Descending FlightAware ADS-B (KEGE)
Fri 07:28:50 PM 53.3112 -2.3629 51° Northeast 137 158 1,000 -750 Descending FlightAware ADS-B (EGCC / MAN)
Fri 07:29:06 PM 53.3169 -2.3512 51° Northeast 133 153 800 -833 Descending FlightAware ADS-B
Fri 07:29:26 PM 53.3250 -2.3344 51° Northeast 130 150 500 -732 Descending FlightAware ADS-B
Fri 07:29:47 PM 53.3328 -2.3184 51° Northeast 129 148 300 -571 Descending FlightAware ADS-B

Login

Don't have an account? Register now (free) for customized features, flight alerts, and more!